Time;durP1;ratioP1;P1;durP2;ratioP2;P2;SDS_P1;SDS_P2;PMS_P1;PMS_P2;Temp;Humidity;BMP_temperature;BMP_pressure;BME280_temperature;BME280_humidity;BME280_pressure;Samples;Min_cycle;Max_cycle;Signal;HPM_P1;HPM_P2
2024/03/24 00:01:24;;;;;;;3.17;0.40;;;4.40;99.90;;;;;;5059357;28;20037;-92
2024/03/24 00:03:50;;;;;;;2.05;0.68;;;4.40;99.90;;;;;;5059898;28;20032;-93
2024/03/24 00:06:15;;;;;;;2.85;0.50;;;4.50;99.90;;;;;;5044213;28;20033;-92
2024/03/24 00:08:41;;;;;;;2.95;0.40;;;4.50;99.90;;;;;;5039431;28;20037;-92
2024/03/24 00:11:08;;;;;;;2.00;0.40;;;4.60;99.90;;;;;;5034282;28;20029;-96
2024/03/24 00:13:34;;;;;;;4.13;0.60;;;4.50;99.90;;;;;;5039391;28;20090;-91
2024/03/24 00:16:02;;;;;;;3.45;0.50;;;4.60;99.90;;;;;;5034597;28;20090;-92
2024/03/24 00:18:32;;;;;;;2.13;0.60;;;4.60;99.90;;;;;;5054423;28;20047;-92
2024/03/24 00:20:58;;;;;;;2.67;0.60;;;4.70;99.90;;;;;;5051565;28;20040;-92
2024/03/24 00:23:23;;;;;;;2.88;0.60;;;4.80;99.90;;;;;;5038067;28;20466;-92
2024/03/24 00:25:49;;;;;;;4.28;0.50;;;4.80;99.90;;;;;;5037765;28;20029;-93
2024/03/24 00:28:15;;;;;;;2.53;0.40;;;4.80;99.90;;;;;;5035276;28;20025;-92
2024/03/24 00:30:41;;;;;;;3.15;0.90;;;4.90;99.90;;;;;;5040403;28;20028;-92
2024/03/24 00:33:08;;;;;;;2.53;0.50;;;4.90;99.90;;;;;;5035297;28;20021;-93
2024/03/24 00:35:35;;;;;;;2.78;0.90;;;5.00;99.90;;;;;;5053808;28;20029;-93
2024/03/24 00:38:00;;;;;;;2.40;0.60;;;5.00;99.90;;;;;;5038212;28;20024;-92
2024/03/24 00:40:26;;;;;;;2.63;0.50;;;5.10;99.90;;;;;;5039617;28;20063;-93
2024/03/24 00:42:55;;;;;;;3.55;0.77;;;5.00;99.90;;;;;;5035958;28;20039;-94
2024/03/24 00:45:21;;;;;;;3.50;0.90;;;5.10;99.90;;;;;;5069935;28;20028;-93
2024/03/24 00:47:49;;;;;;;2.10;0.60;;;5.20;99.90;;;;;;5034340;28;20033;-92
2024/03/24 00:50:16;;;;;;;2.97;0.60;;;5.20;99.90;;;;;;5036005;28;20050;-94
2024/03/24 00:52:44;;;;;;;2.83;0.63;;;5.20;99.90;;;;;;5036195;28;20028;-94
2024/03/24 00:55:10;;;;;;;3.30;1.00;;;5.40;99.90;;;;;;5037292;28;20037;-92
2024/03/24 00:57:35;;;;;;;4.20;0.70;;;5.40;99.90;;;;;;5038996;28;20032;-93
2024/03/24 01:00:06;;;;;;;5.13;1.08;;;5.40;99.90;;;;;;5034377;28;20048;-93
2024/03/24 01:02:32;;;;;;;4.47;1.20;;;5.40;99.90;;;;;;5033171;28;20028;-93
2024/03/24 01:04:58;;;;;;;3.88;1.38;;;5.50;99.90;;;;;;5032094;28;20089;-93
2024/03/24 01:07:24;;;;;;;6.78;1.75;;;5.50;99.90;;;;;;5036646;28;20127;-94
2024/03/24 01:09:51;;;;;;;3.88;1.23;;;5.50;99.90;;;;;;5044883;28;20054;-93
2024/03/24 01:12:17;;;;;;;4.50;1.00;;;5.50;99.90;;;;;;5043176;28;20484;-93
2024/03/24 01:14:42;;;;;;;4.50;1.63;;;5.50;99.90;;;;;;5043296;28;20131;-93
2024/03/24 01:17:09;;;;;;;5.95;2.00;;;5.50;99.90;;;;;;5041611;28;20027;-90
2024/03/24 01:19:35;;;;;;;6.60;1.83;;;5.40;99.90;;;;;;5038423;28;20114;-90
2024/03/24 01:22:01;;;;;;;3.72;2.70;;;5.40;99.90;;;;;;5035200;28;20060;-92
2024/03/24 01:24:27;;;;;;;5.07;2.20;;;5.30;99.90;;;;;;5039151;28;20464;-93
2024/03/24 01:26:53;;;;;;;5.68;2.33;;;5.30;99.90;;;;;;5034917;28;20108;-90
2024/03/24 01:29:18;;;;;;;4.85;1.58;;;5.30;99.90;;;;;;5042553;28;20025;-90
2024/03/24 01:31:44;;;;;;;3.70;1.05;;;5.30;99.90;;;;;;5040488;28;20475;-91
2024/03/24 01:34:10;;;;;;;6.10;1.50;;;5.30;99.90;;;;;;5060433;28;20021;-91
2024/03/24 01:36:36;;;;;;;2.90;2.00;;;5.30;99.90;;;;;;5037529;28;20055;-93
2024/03/24 01:39:02;;;;;;;5.05;1.70;;;5.30;99.90;;;;;;5035021;28;20031;-89
2024/03/24 01:41:28;;;;;;;5.15;1.58;;;5.30;99.90;;;;;;5036319;28;20659;-92
2024/03/24 01:43:55;;;;;;;5.03;1.90;;;5.30;99.90;;;;;;5055886;28;20238;-92
2024/03/24 01:46:21;;;;;;;3.30;1.70;;;5.30;99.90;;;;;;5040701;28;20028;-92
2024/03/24 01:48:47;;;;;;;4.70;1.88;;;5.30;99.90;;;;;;5037588;28;20060;-91
2024/03/24 01:51:14;;;;;;;3.95;1.77;;;5.40;99.90;;;;;;5043414;28;20040;-90
2024/03/24 01:53:41;;;;;;;5.85;1.73;;;5.30;99.90;;;;;;5038315;28;20040;-90
2024/03/24 01:56:07;;;;;;;5.85;1.92;;;5.30;99.90;;;;;;5040736;28;20411;-91
2024/03/24 01:58:34;;;;;;;4.10;1.75;;;5.40;99.90;;;;;;5040520;28;20016;-90
2024/03/24 02:01:00;;;;;;;4.57;1.52;;;5.40;99.90;;;;;;5054739;28;20047;-90
2024/03/24 02:03:30;;;;;;;3.97;1.25;;;5.40;99.90;;;;;;5044453;28;20626;-90
2024/03/24 02:05:57;;;;;;;3.72;1.10;;;5.40;99.90;;;;;;5052294;28;20016;-92
2024/03/24 02:08:22;;;;;;;3.45;1.90;;;5.40;99.90;;;;;;5038189;28;20055;-91
2024/03/24 02:10:48;;;;;;;3.45;1.20;;;5.40;99.90;;;;;;5043536;28;20040;-93
2024/03/24 02:13:14;;;;;;;5.40;1.92;;;5.50;99.90;;;;;;5037111;28;20032;-93
2024/03/24 02:15:39;;;;;;;4.88;1.77;;;5.50;99.90;;;;;;5038327;28;20036;-92
2024/03/24 02:18:05;;;;;;;3.63;1.83;;;5.50;99.90;;;;;;5034039;28;20487;-93
2024/03/24 02:20:31;;;;;;;7.72;2.97;;;5.50;99.90;;;;;;5037556;28;20036;-92
2024/03/24 02:22:57;;;;;;;5.45;2.72;;;5.60;99.90;;;;;;5036716;28;20029;-93
2024/03/24 02:25:23;;;;;;;6.65;3.45;;;5.60;99.90;;;;;;5042851;28;20024;-92
2024/03/24 02:27:49;;;;;;;3.90;2.40;;;5.60;99.90;;;;;;5056448;28;20017;-92
2024/03/24 02:30:14;;;;;;;5.93;2.85;;;5.60;99.90;;;;;;5041701;28;20480;-91
2024/03/24 02:32:44;;;;;;;6.18;3.60;;;5.60;99.90;;;;;;5061554;28;20025;-91
2024/03/24 02:35:11;;;;;;;3.28;2.45;;;5.70;99.90;;;;;;5055041;28;20032;-92
2024/03/24 02:37:38;;;;;;;4.75;2.17;;;5.70;99.90;;;;;;5040018;28;20041;-92
2024/03/24 02:40:07;;;;;;;5.07;2.78;;;5.70;99.90;;;;;;5034282;28;20051;-92
2024/03/24 02:42:32;;;;;;;5.97;2.90;;;5.70;99.90;;;;;;5037950;28;20111;-92
2024/03/24 02:44:58;;;;;;;3.90;1.77;;;5.70;99.90;;;;;;5056184;28;20544;-93
2024/03/24 02:47:24;;;;;;;7.78;4.00;;;5.70;99.90;;;;;;5040835;28;20036;-92
2024/03/24 02:49:49;;;;;;;7.28;3.42;;;5.70;99.90;;;;;;5057779;28;20035;-92
2024/03/24 02:52:15;;;;;;;8.15;3.80;;;5.80;99.90;;;;;;5034948;28;20021;-89
2024/03/24 02:54:41;;;;;;;6.63;3.95;;;5.80;99.90;;;;;;5037004;28;20029;-89
2024/03/24 02:57:07;;;;;;;9.63;4.55;;;5.80;99.90;;;;;;5036406;28;20499;-91
2024/03/24 02:59:33;;;;;;;7.57;3.45;;;5.80;99.90;;;;;;5036219;28;20029;-90
2024/03/24 03:02:02;;;;;;;8.18;5.20;;;5.80;99.90;;;;;;5053973;28;20047;-91
2024/03/24 03:04:34;;;;;;;8.32;4.55;;;5.70;99.90;;;;;;5057773;28;20024;-92
2024/03/24 03:07:04;;;;;;;8.90;5.30;;;5.70;99.90;;;;;;5051430;28;20060;-91
2024/03/24 03:09:32;;;;;;;7.35;4.25;;;5.80;99.90;;;;;;5058814;28;20488;-90
2024/03/24 03:11:58;;;;;;;6.88;3.58;;;5.80;99.90;;;;;;5038166;28;20029;-90
2024/03/24 03:14:24;;;;;;;6.28;3.55;;;5.80;99.90;;;;;;5034529;28;20093;-91
2024/03/24 03:16:49;;;;;;;7.32;2.97;;;5.80;99.90;;;;;;5044010;28;20115;-91
2024/03/24 03:19:15;;;;;;;9.23;5.00;;;5.80;99.90;;;;;;5045027;28;20026;-92
2024/03/24 03:21:41;;;;;;;9.15;5.55;;;5.80;99.90;;;;;;5037892;28;20491;-92
2024/03/24 03:24:07;;;;;;;8.05;5.28;;;5.80;99.90;;;;;;5039043;28;20021;-91
2024/03/24 03:26:33;;;;;;;7.03;5.18;;;5.80;99.90;;;;;;5057312;28;20078;-91
2024/03/24 03:29:01;;;;;;;9.48;5.13;;;5.80;99.90;;;;;;5050411;28;20419;-92
2024/03/24 03:31:27;;;;;;;5.55;4.38;;;5.80;99.90;;;;;;5058387;28;20021;-92
2024/03/24 03:33:53;;;;;;;11.32;4.85;;;5.80;99.90;;;;;;5050307;28;20030;-91
2024/03/24 03:36:19;;;;;;;11.38;5.90;;;5.80;99.90;;;;;;5044060;28;20037;-91
2024/03/24 03:38:44;;;;;;;6.05;4.00;;;5.80;99.90;;;;;;5038420;28;20493;-93
2024/03/24 03:41:12;;;;;;;6.07;3.55;;;5.80;99.90;;;;;;5041431;28;20024;-91
2024/03/24 03:43:38;;;;;;;5.95;3.00;;;5.90;99.90;;;;;;5035922;28;20021;-91
2024/03/24 03:46:06;;;;;;;4.32;3.20;;;5.80;99.90;;;;;;5062401;28;20446;-94
2024/03/24 03:48:32;;;;;;;4.95;2.78;;;5.80;99.90;;;;;;5046190;28;20082;-94
2024/03/24 03:51:00;;;;;;;7.95;4.22;;;5.90;99.90;;;;;;5038970;28;20039;-92
2024/03/24 03:53:36;;;;;;;4.90;3.72;;;5.80;99.90;;;;;;5057716;28;20431;-94
2024/03/24 03:56:28;;;;;;;6.22;3.35;;;5.90;99.90;;;;;;5117447;22;20045;-95
2024/03/24 03:58:54;;;;;;;8.18;5.13;;;5.90;99.90;;;;;;5027139;28;20045;-94
2024/03/24 04:01:31;;;;;;;6.30;3.67;;;5.90;99.90;;;;;;5021519;28;20063;-95
2024/03/24 04:03:59;;;;;;;9.95;4.55;;;5.90;99.90;;;;;;5046607;28;20035;-95
2024/03/24 04:06:31;;;;;;;7.10;3.47;;;5.90;99.90;;;;;;5048733;28;20032;-96
2024/03/24 04:09:03;;;;;;;9.27;4.05;;;6.00;99.90;;;;;;5062655;28;20044;-96
2024/03/24 04:11:29;;;;;;;10.75;4.90;;;6.00;99.90;;;;;;5051200;28;20033;-96
2024/03/24 04:13:55;;;;;;;12.75;5.63;;;6.10;99.90;;;;;;5061791;28;20056;-93
2024/03/24 04:16:21;;;;;;;5.72;2.85;;;5.80;99.90;;;;;;5023641;28;20075;-95
2024/03/24 04:18:50;;;;;;;5.18;1.95;;;5.40;99.90;;;;;;5027223;28;20040;-95
2024/03/24 04:21:19;;;;;;;2.55;0.70;;;5.40;99.90;;;;;;5044125;28;20044;-95
2024/03/24 04:24:02;;;;;;;1.67;0.60;;;5.40;99.90;;;;;;5043899;28;20103;-95
2024/03/24 04:26:44;;;;;;;1.70;0.20;;;5.20;99.90;;;;;;5024539;28;20025;-96
2024/03/24 04:29:13;;;;;;;1.40;0.20;;;5.10;99.90;;;;;;5040592;28;20041;-95
2024/03/24 04:32:03;;;;;;;1.00;0.20;;;5.10;99.90;;;;;;5036900;28;20035;-96
2024/03/24 04:34:50;;;;;;;1.38;0.20;;;5.00;99.90;;;;;;5024396;28;20083;-95
2024/03/24 04:37:21;;;;;;;1.52;0.20;;;5.00;99.90;;;;;;5036063;28;20099;-94
2024/03/24 04:39:50;;;;;;;1.17;0.20;;;4.90;99.90;;;;;;5024451;28;20033;-95
2024/03/24 04:42:16;;;;;;;0.70;0.20;;;4.80;99.90;;;;;;5025267;28;20101;-95
2024/03/24 04:44:44;;;;;;;1.38;0.30;;;4.80;99.90;;;;;;5046848;28;20032;-96
2024/03/24 04:47:48;;;;;;;1.88;0.20;;;4.80;99.90;;;;;;5037391;28;20033;-96
2024/03/24 04:50:51;;;;;;;1.17;0.20;;;4.80;99.90;;;;;;5018302;28;20037;-95
2024/03/24 04:53:18;;;;;;;0.98;0.20;;;4.80;99.90;;;;;;5022178;28;20436;-93
2024/03/24 04:56:24;;;;;;;2.50;0.20;;;4.80;99.90;;;;;;5050847;28;20053;-95
2024/03/24 04:59:35;;;;;;;1.58;0.35;;;4.80;99.90;;;;;;5032839;28;20034;-96
2024/03/24 05:02:05;;;;;;;1.70;0.60;;;4.90;99.90;;;;;;5043242;22;20045;-95
2024/03/24 05:04:39;;;;;;;1.58;0.30;;;4.90;99.90;;;;;;4993708;28;20036;-96
2024/03/24 05:07:05;;;;;;;1.75;0.30;;;5.00;99.90;;;;;;5009749;28;20057;-95
2024/03/24 05:09:31;;;;;;;0.93;0.20;;;4.90;99.90;;;;;;5026488;28;20033;-94
2024/03/24 05:11:57;;;;;;;1.45;0.20;;;4.90;99.90;;;;;;5010648;28;20116;-94
2024/03/24 05:14:24;;;;;;;1.05;0.20;;;4.80;99.90;;;;;;4994351;28;20142;-93
2024/03/24 05:16:51;;;;;;;1.27;0.20;;;4.80;99.90;;;;;;4999794;28;20088;-94
2024/03/24 05:19:23;;;;;;;1.35;0.30;;;4.80;99.90;;;;;;4989856;28;20038;-94
2024/03/24 05:21:58;;;;;;;1.40;0.30;;;4.80;99.90;;;;;;4991762;28;20309;-94
2024/03/24 05:24:27;;;;;;;2.20;0.40;;;4.70;99.90;;;;;;4992467;28;20022;-94
2024/03/24 05:26:54;;;;;;;2.38;0.30;;;4.70;99.90;;;;;;5004251;28;20124;-94
2024/03/24 05:29:25;;;;;;;1.85;0.20;;;4.60;99.90;;;;;;5014364;28;20092;-94
2024/03/24 05:32:01;;;;;;;1.27;0.20;;;4.60;99.90;;;;;;5003924;28;20079;-94
2024/03/24 05:34:38;;;;;;;0.90;0.30;;;4.60;99.90;;;;;;5006084;28;20030;-93
2024/03/24 05:37:38;;;;;;;1.25;0.20;;;4.60;99.90;;;;;;5004971;28;20084;-93
2024/03/24 05:40:16;;;;;;;1.58;0.20;;;4.50;99.90;;;;;;5007702;28;20089;-93
2024/03/24 05:42:51;;;;;;;0.63;0.10;;;4.50;99.90;;;;;;5007829;28;20044;-92
2024/03/24 05:45:22;;;;;;;0.52;0.10;;;4.50;99.90;;;;;;5009078;28;20040;-93
2024/03/24 05:51:23;;;;;;;0.90;0.20;;;4.50;99.90;;;;;;5044502;28;20026;-93
2024/03/24 05:53:51;;;;;;;1.70;0.20;;;4.50;99.90;;;;;;5027969;28;20038;-94
2024/03/24 05:56:42;;;;;;;0.82;0.30;;;4.50;99.90;;;;;;5031412;28;20040;-92
2024/03/24 05:59:11;;;;;;;4.18;0.40;;;4.50;99.90;;;;;;5028821;28;20049;-93
2024/03/24 06:01:55;;;;;;;2.75;0.30;;;4.60;99.90;;;;;;5030449;28;20025;-93
2024/03/24 06:04:35;;;;;;;2.58;0.38;;;4.70;99.90;;;;;;5028526;28;20167;-93
2024/03/24 06:07:03;;;;;;;2.80;0.57;;;4.70;99.90;;;;;;5067928;23;20135;-90
2024/03/24 06:09:29;;;;;;;4.20;0.40;;;4.80;99.90;;;;;;5058193;28;20076;-94
2024/03/24 06:12:06;;;;;;;3.20;0.40;;;4.90;99.90;;;;;;5077583;28;20032;-92
2024/03/24 06:15:01;;;;;;;2.10;0.40;;;5.00;99.90;;;;;;5108126;28;20039;-92
2024/03/24 06:17:27;;;;;;;2.30;0.40;;;5.10;99.90;;;;;;5064527;28;20123;-92
2024/03/24 06:19:53;;;;;;;4.50;0.50;;;5.20;99.90;;;;;;5081208;27;20109;-92
2024/03/24 06:22:19;;;;;;;3.72;0.50;;;5.30;99.90;;;;;;5077025;28;20036;-92
2024/03/24 06:24:46;;;;;;;3.38;0.40;;;5.40;99.90;;;;;;5097680;27;20026;-90
2024/03/24 06:27:12;;;;;;;4.20;0.70;;;5.40;99.90;;;;;;5086622;27;20034;-92
2024/03/24 06:29:38;;;;;;;4.70;0.90;;;5.50;99.90;;;;;;5078905;28;20504;-94
2024/03/24 06:32:07;;;;;;;4.28;0.50;;;5.50;99.90;;;;;;5079796;28;20147;-95
2024/03/24 06:34:35;;;;;;;4.20;0.68;;;5.60;99.90;;;;;;5097821;28;20069;-94
2024/03/24 06:37:01;;;;;;;3.75;0.40;;;5.50;99.90;;;;;;5100433;28;20134;-96
2024/03/24 06:39:29;;;;;;;1.80;0.70;;;5.40;99.90;;;;;;5078630;28;20547;-95
2024/03/24 06:41:56;;;;;;;5.80;0.70;;;5.40;99.90;;;;;;5079618;28;20035;-93
2024/03/24 06:44:35;;;;;;;2.40;0.40;;;5.30;99.90;;;;;;5076463;28;20032;-95
2024/03/24 06:47:02;;;;;;;3.28;0.40;;;5.20;99.90;;;;;;5077766;28;20031;-93
2024/03/24 06:49:28;;;;;;;2.42;0.38;;;5.10;99.90;;;;;;5080643;28;20038;-94
2024/03/24 06:51:53;;;;;;;3.08;0.40;;;5.10;99.90;;;;;;5107129;28;20020;-92
2024/03/24 06:54:19;;;;;;;3.05;0.40;;;5.10;99.90;;;;;;5078495;28;20080;-95
2024/03/24 06:56:45;;;;;;;3.17;0.43;;;5.10;99.90;;;;;;5072225;28;20034;-92
2024/03/24 06:59:11;;;;;;;6.72;0.80;;;5.10;99.90;;;;;;5057293;28;20023;-92
2024/03/24 07:01:37;;;;;;;3.13;0.50;;;5.20;99.90;;;;;;5086274;27;20489;-93
2024/03/24 07:04:08;;;;;;;6.68;0.75;;;5.30;99.90;;;;;;5079522;28;20054;-95
2024/03/24 07:06:37;;;;;;;7.72;0.80;;;5.30;99.90;;;;;;5083035;28;20039;-94
2024/03/24 07:09:03;;;;;;;4.43;0.60;;;5.40;99.90;;;;;;5076940;28;20047;-95
2024/03/24 07:11:28;;;;;;;6.00;0.90;;;5.50;99.90;;;;;;5078222;28;20020;-93
2024/03/24 07:13:54;;;;;;;4.90;0.70;;;5.60;99.90;;;;;;5095850;28;20487;-93
2024/03/24 07:16:21;;;;;;;3.50;0.60;;;5.60;99.90;;;;;;5079816;28;20047;-95
2024/03/24 07:18:46;;;;;;;5.22;0.80;;;5.70;99.90;;;;;;5105205;27;20028;-94
2024/03/24 07:21:13;;;;;;;6.82;0.60;;;5.80;99.90;;;;;;5087877;28;20399;-93
2024/03/24 07:23:39;;;;;;;4.10;0.52;;;5.70;99.90;;;;;;5112035;27;20031;-93
2024/03/24 07:26:04;;;;;;;3.13;0.55;;;5.80;99.90;;;;;;5099262;28;20034;-93
2024/03/24 07:28:31;;;;;;;2.88;0.68;;;5.70;99.90;;;;;;5087026;27;20029;-94
2024/03/24 07:30:59;;;;;;;6.55;0.60;;;5.70;99.90;;;;;;5076353;28;20081;-95
2024/03/24 07:33:25;;;;;;;5.78;0.68;;;5.60;99.90;;;;;;5108833;27;20395;-94
2024/03/24 07:35:51;;;;;;;5.03;0.70;;;5.60;99.90;;;;;;5077876;28;20035;-94
2024/03/24 07:38:17;;;;;;;1.80;0.40;;;5.60;99.90;;;;;;5107342;27;20462;-94
2024/03/24 07:40:43;;;;;;;4.93;0.40;;;5.60;99.90;;;;;;5078969;28;20023;-94
2024/03/24 07:43:11;;;;;;;4.40;0.60;;;5.70;99.90;;;;;;5078006;28;20020;-95
2024/03/24 07:45:40;;;;;;;3.72;0.68;;;5.70;99.90;;;;;;5096303;28;20031;-94
2024/03/24 07:48:10;;;;;;;6.28;0.82;;;5.70;99.90;;;;;;5097483;28;20024;-94
2024/03/24 07:50:40;;;;;;;5.07;0.77;;;5.80;99.90;;;;;;5105695;27;20023;-93
2024/03/24 07:53:18;;;;;;;;;;;;;;;;;;;;;
2024/03/24 07:55:46;;;;;;;4.40;0.73;;;6.20;99.90;;;;;;5086554;28;20359;-93
2024/03/24 07:58:21;;;;;;;7.15;1.00;;;6.40;99.90;;;;;;5096738;28;20134;-94
2024/03/24 08:00:56;;;;;;;7.22;0.85;;;6.20;99.90;;;;;;5063927;28;20088;-92
2024/03/24 08:03:29;;;;;;;5.60;0.80;;;6.10;99.90;;;;;;5080324;28;20063;-93
2024/03/24 08:05:58;;;;;;;6.93;1.17;;;6.10;99.90;;;;;;5079571;28;20035;-94
2024/03/24 08:08:27;;;;;;;7.32;1.00;;;6.00;99.90;;;;;;5073658;28;20048;-94
2024/03/24 08:10:55;;;;;;;10.40;2.33;;;6.10;99.90;;;;;;5049112;28;20565;-93
2024/03/24 08:13:21;;;;;;;7.70;1.45;;;6.40;99.90;;;;;;5064770;28;20122;-93
2024/03/24 08:15:47;;;;;;;9.73;1.55;;;6.50;99.90;;;;;;5078543;28;20419;-92
2024/03/24 08:18:14;;;;;;;7.43;1.50;;;6.90;99.90;;;;;;5062583;28;20036;-92
2024/03/24 08:20:49;;;;;;;9.27;1.73;;;6.90;99.90;;;;;;5078300;28;20073;-93
2024/03/24 08:23:20;;;;;;;8.45;1.73;;;7.00;99.90;;;;;;5050819;28;20302;-92
2024/03/24 08:25:48;;;;;;;10.50;2.17;;;6.70;99.90;;;;;;5066453;28;20028;-91
2024/03/24 08:28:14;;;;;;;14.80;2.42;;;6.80;99.90;;;;;;5080835;27;20076;-93
2024/03/24 08:30:41;;;;;;;10.88;2.67;;;6.80;99.90;;;;;;5077442;27;20407;-91
2024/03/24 08:33:08;;;;;;;13.38;3.00;;;6.90;99.90;;;;;;5054751;28;20032;-93
2024/03/24 08:35:34;;;;;;;13.68;2.50;;;6.90;99.90;;;;;;5048488;28;20108;-92
2024/03/24 08:38:00;;;;;;;12.55;2.40;;;7.10;99.90;;;;;;5050578;28;20036;-91
2024/03/24 08:40:27;;;;;;;12.57;3.40;;;7.30;99.90;;;;;;5062268;28;20028;-89
2024/03/24 08:42:59;;;;;;;13.43;2.75;;;7.70;99.90;;;;;;5063012;28;20039;-94
2024/03/24 08:45:24;;;;;;;11.15;2.30;;;7.40;99.90;;;;;;5064841;28;20627;-91
2024/03/24 08:47:50;;;;;;;10.07;2.75;;;7.30;99.90;;;;;;5063717;28;20023;-94
2024/03/24 08:50:16;;;;;;;16.60;2.38;;;7.10;99.90;;;;;;5062222;28;20062;-88
2024/03/24 08:52:42;;;;;;;12.75;3.05;;;7.10;99.90;;;;;;5072364;27;20086;-91
2024/03/24 08:55:08;;;;;;;16.05;3.20;;;7.00;99.90;;;;;;5066667;28;20044;-90
2024/03/24 08:57:35;;;;;;;11.85;2.22;;;7.00;99.90;;;;;;5083952;27;20493;-92
2024/03/24 09:00:01;;;;;;;13.60;2.33;;;6.90;99.90;;;;;;5067497;27;20074;-93
2024/03/24 09:02:33;;;;;;;12.85;1.90;;;6.90;99.90;;;;;;5044121;28;20581;-92
2024/03/24 09:04:59;;;;;;;10.70;1.50;;;6.90;99.90;;;;;;5079522;27;20105;-92
2024/03/24 09:07:25;;;;;;;8.65;1.75;;;6.90;99.90;;;;;;5077403;28;20126;-90
2024/03/24 09:09:51;;;;;;;9.57;1.75;;;6.80;99.90;;;;;;5054612;28;20184;-91
2024/03/24 09:12:17;;;;;;;10.02;1.70;;;6.80;99.90;;;;;;5037432;28;20186;-90
2024/03/24 09:14:43;;;;;;;14.02;2.03;;;7.00;99.90;;;;;;5037775;28;20674;-91
2024/03/24 09:17:12;;;;;;;8.02;1.77;;;7.10;99.90;;;;;;5070047;28;20512;-90
2024/03/24 09:19:38;;;;;;;13.38;2.15;;;7.20;99.90;;;;;;5052642;28;22188;-90
2024/03/24 09:22:05;;;;;;;11.75;2.90;;;7.20;99.90;;;;;;5054465;28;20039;-92
2024/03/24 09:24:34;;;;;;;14.95;3.35;;;7.20;99.90;;;;;;5067324;28;20024;-89
2024/03/24 09:27:02;;;;;;;13.98;1.95;;;7.20;99.90;;;;;;5055082;28;20049;-91
2024/03/24 09:29:28;;;;;;;15.38;1.70;;;7.20;99.90;;;;;;5065983;28;20043;-92
2024/03/24 09:31:54;;;;;;;11.73;1.38;;;7.10;99.90;;;;;;5064701;28;20056;-92
2024/03/24 09:34:22;;;;;;;9.98;1.83;;;7.00;99.90;;;;;;5060462;28;20101;-90
2024/03/24 09:36:48;;;;;;;8.45;1.42;;;7.00;99.90;;;;;;5049152;28;20039;-90
2024/03/24 09:39:14;;;;;;;10.75;1.50;;;6.90;99.90;;;;;;5051374;28;20091;-88
2024/03/24 09:41:45;;;;;;;6.68;1.63;;;6.80;99.90;;;;;;5056803;28;20411;-91
2024/03/24 09:44:12;;;;;;;9.25;0.82;;;6.80;99.90;;;;;;5084395;28;20119;-92
2024/03/24 09:46:45;;;;;;;9.32;0.98;;;6.70;99.90;;;;;;5072138;28;20101;-91
2024/03/24 09:49:15;;;;;;;7.55;0.77;;;6.70;99.90;;;;;;5068025;28;20029;-92
2024/03/24 09:51:42;;;;;;;13.43;1.25;;;6.60;99.90;;;;;;5087227;28;20028;-89
2024/03/24 09:54:12;;;;;;;13.77;1.45;;;6.70;99.90;;;;;;5052151;28;20046;-92
2024/03/24 09:56:39;;;;;;;9.48;1.35;;;6.70;99.90;;;;;;5052364;28;20545;-91
2024/03/24 09:59:06;;;;;;;9.27;1.00;;;6.60;99.90;;;;;;5052970;28;20027;-92
2024/03/24 10:01:33;;;;;;;6.95;0.50;;;6.70;99.90;;;;;;5056135;28;20439;-90
2024/03/24 10:04:00;;;;;;;7.80;0.80;;;6.50;99.90;;;;;;5072013;28;20051;-90
2024/03/24 10:06:27;;;;;;;5.07;0.60;;;6.40;99.90;;;;;;5068751;28;20031;-91
2024/03/24 10:08:55;;;;;;;5.30;0.40;;;6.30;99.90;;;;;;5060978;28;20036;-89
2024/03/24 10:11:34;;;;;;;5.82;0.30;;;6.30;99.90;;;;;;5059480;28;20547;-90
2024/03/24 10:14:01;;;;;;;7.38;1.02;;;6.30;99.90;;;;;;5053831;28;20032;-89
2024/03/24 10:16:27;;;;;;;3.35;0.40;;;6.30;99.90;;;;;;5052946;28;20051;-90
2024/03/24 10:18:54;;;;;;;4.32;0.50;;;6.20;99.90;;;;;;5066150;28;20020;-92
2024/03/24 10:21:20;;;;;;;5.15;0.60;;;6.10;99.90;;;;;;5059584;28;20194;-89
2024/03/24 10:23:47;;;;;;;4.25;0.50;;;6.20;99.90;;;;;;5074664;28;20565;-90
2024/03/24 10:26:22;;;;;;;7.13;0.40;;;6.30;99.90;;;;;;5062929;28;20043;-90
2024/03/24 10:28:50;;;;;;;4.85;0.55;;;6.40;99.90;;;;;;5073223;28;20054;-91
2024/03/24 10:31:16;;;;;;;3.38;0.40;;;6.50;99.90;;;;;;5061960;28;20028;-89
2024/03/24 10:33:46;;;;;;;2.22;0.30;;;6.60;99.90;;;;;;5050120;28;20032;-89
2024/03/24 10:36:12;;;;;;;3.92;0.30;;;6.70;99.90;;;;;;5055318;28;20039;-89
2024/03/24 10:38:38;;;;;;;3.90;0.30;;;6.90;99.90;;;;;;5059566;28;20467;-89
2024/03/24 10:41:06;;;;;;;3.05;0.30;;;7.00;99.90;;;;;;5071687;28;20073;-90
2024/03/24 10:43:32;;;;;;;5.20;0.47;;;7.10;99.90;;;;;;5056596;28;20027;-88
2024/03/24 10:45:59;;;;;;;4.57;0.45;;;7.00;99.90;;;;;;5052099;28;20038;-88
2024/03/24 10:48:29;;;;;;;4.15;0.50;;;7.00;99.90;;;;;;5067283;28;20024;-87
2024/03/24 10:50:56;;;;;;;3.20;0.40;;;7.10;99.90;;;;;;5054072;28;20051;-87
2024/03/24 10:53:26;;;;;;;5.65;0.50;;;7.20;99.90;;;;;;5084457;28;20056;-86
2024/03/24 10:55:55;;;;;;;7.05;0.70;;;7.10;99.90;;;;;;5072710;28;20036;-89
2024/03/24 10:58:22;;;;;;;5.25;0.50;;;7.40;99.90;;;;;;5055497;28;20074;-87
2024/03/24 11:00:49;;;;;;;6.32;0.40;;;7.30;99.90;;;;;;5057638;28;20064;-89
2024/03/24 11:03:16;;;;;;;3.53;0.40;;;7.40;99.90;;;;;;5071937;28;20464;-89
2024/03/24 11:05:47;;;;;;;6.40;0.50;;;7.50;99.90;;;;;;5057414;28;20028;-88
2024/03/24 11:08:15;;;;;;;4.00;0.50;;;7.40;99.90;;;;;;5062099;28;20494;-88
2024/03/24 11:10:52;;;;;;;5.60;0.70;;;7.50;99.90;;;;;;5066485;22;20035;-88
2024/03/24 11:13:24;;;;;;;5.88;0.50;;;7.70;99.90;;;;;;5053425;28;20060;-89
2024/03/24 11:16:01;;;;;;;5.50;0.85;;;7.60;99.90;;;;;;5060240;22;20048;-87
2024/03/24 11:18:29;;;;;;;10.38;0.50;;;7.60;99.90;;;;;;5071503;28;20032;-89
2024/03/24 11:20:57;;;;;;;4.13;0.40;;;7.50;99.90;;;;;;5049974;28;20124;-90
2024/03/24 11:23:35;;;;;;;7.82;0.50;;;7.70;99.90;;;;;;5073159;28;20028;-90
2024/03/24 11:26:07;;;;;;;7.68;0.70;;;7.70;99.90;;;;;;5049361;28;20114;-92
2024/03/24 11:28:52;;;;;;;5.38;0.60;;;7.80;99.90;;;;;;5086829;28;20114;-90
2024/03/24 11:31:27;;;;;;;5.70;0.70;;;7.90;99.90;;;;;;5050896;28;20075;-91
2024/03/24 11:34:11;;;;;;;9.20;0.50;;;7.90;99.90;;;;;;5050677;28;20034;-92
2024/03/24 11:37:01;;;;;;;6.07;0.88;;;8.00;99.90;;;;;;5049468;28;20143;-92
2024/03/24 11:39:37;;;;;;;9.75;0.60;;;8.10;99.90;;;;;;5064524;28;20025;-93
2024/03/24 11:42:21;;;;;;;6.55;0.60;;;8.40;99.90;;;;;;5056508;28;20051;-91
2024/03/24 11:44:56;;;;;;;7.35;0.70;;;8.50;99.90;;;;;;5039133;28;20329;-94
2024/03/24 11:47:23;;;;;;;8.15;0.55;;;8.40;99.90;;;;;;5070806;28;20078;-94
2024/03/24 11:49:50;;;;;;;10.57;0.82;;;8.50;99.90;;;;;;5055232;28;20093;-90
2024/03/24 11:52:20;;;;;;;9.02;1.00;;;8.40;99.90;;;;;;5068067;28;20041;-92
2024/03/24 11:54:47;;;;;;;;;;;8.40;99.90;;;;;;5051533;28;20024;-92
2024/03/24 11:57:15;;;;;;;9.07;0.60;;;8.30;99.90;;;;;;5057925;28;20014;-91
2024/03/24 11:59:43;;;;;;;12.63;0.98;;;8.30;99.90;;;;;;5049655;28;20080;-94
2024/03/24 12:02:08;;;;;;;12.20;0.75;;;8.10;99.90;;;;;;5068641;28;20028;-93
2024/03/24 12:04:34;;;;;;;8.93;0.68;;;8.10;99.90;;;;;;5054575;28;20077;-95
2024/03/24 12:07:01;;;;;;;8.02;0.70;;;8.00;99.90;;;;;;5055469;28;20124;-95
2024/03/24 12:09:28;;;;;;;8.07;0.93;;;8.10;99.90;;;;;;5052104;28;20076;-91
2024/03/24 12:11:57;;;;;;;2.92;0.50;;;8.20;99.90;;;;;;5055126;28;20030;-91
2024/03/24 12:14:23;;;;;;;7.50;0.70;;;8.20;99.90;;;;;;5055800;28;20035;-93
2024/03/24 12:17:03;;;;;;;9.18;0.63;;;8.10;99.90;;;;;;5051070;28;20060;-94
2024/03/24 12:19:29;;;;;;;9.18;0.60;;;8.20;99.90;;;;;;5068290;28;20033;-95
2024/03/24 12:21:55;;;;;;;6.15;0.50;;;8.20;99.90;;;;;;5044179;28;20085;-92
2024/03/24 12:24:22;;;;;;;4.15;0.60;;;8.10;99.90;;;;;;5042271;28;20031;-92
2024/03/24 12:26:48;;;;;;;5.63;0.60;;;7.80;99.90;;;;;;5047583;28;20029;-90
2024/03/24 12:29:17;;;;;;;4.35;0.40;;;7.80;99.90;;;;;;5050550;28;20535;-93
2024/03/24 12:31:51;;;;;;;6.28;0.82;;;7.90;99.90;;;;;;5047348;28;20063;-92
2024/03/24 12:34:21;;;;;;;7.03;0.50;;;8.20;99.90;;;;;;5082541;28;20037;-92
2024/03/24 12:36:49;;;;;;;5.63;0.40;;;8.20;99.90;;;;;;5046344;28;20040;-91
2024/03/24 12:39:15;;;;;;;7.95;0.50;;;8.40;99.90;;;;;;5072098;28;20518;-91
2024/03/24 12:41:41;;;;;;;8.82;0.50;;;8.60;99.90;;;;;;5049744;28;20028;-90
2024/03/24 12:44:07;;;;;;;11.65;0.50;;;8.80;99.90;;;;;;5050279;28;20028;-91
2024/03/24 12:46:34;;;;;;;6.70;0.40;;;8.90;99.90;;;;;;5049445;28;20032;-92
2024/03/24 12:49:32;;;;;;;7.20;0.63;;;9.00;99.90;;;;;;5046532;28;20035;-90
2024/03/24 12:51:57;;;;;;;10.18;0.68;;;9.30;99.90;;;;;;5032709;28;20101;-89
2024/03/24 12:54:25;;;;;;;7.05;0.38;;;9.10;99.90;;;;;;5050026;28;20024;-89
2024/03/24 12:56:51;;;;;;;6.82;0.55;;;9.10;99.90;;;;;;5071725;28;20115;-93
2024/03/24 12:59:18;;;;;;;5.85;0.43;;;9.00;99.90;;;;;;5059703;28;20151;-90
2024/03/24 13:01:46;;;;;;;8.38;0.90;;;9.10;99.90;;;;;;5061672;28;20033;-89
2024/03/24 13:04:14;;;;;;;6.72;0.40;;;9.00;99.90;;;;;;5046318;28;20028;-88
2024/03/24 13:06:42;;;;;;;8.10;0.50;;;9.00;99.90;;;;;;5062281;28;20109;-91
2024/03/24 13:09:07;;;;;;;10.13;0.50;;;8.80;99.90;;;;;;5051346;28;20025;-90
2024/03/24 13:11:33;;;;;;;8.77;0.50;;;8.60;99.90;;;;;;5049515;28;20040;-90